航空気象通報

ウインドサーファーのための航空気象通報による風予報です。

1/14-1/16の航空気象通報

2019年01月14日 23時50分24秒 | お天気
羽田空港
TAF RJTT 141106Z 1412/1518 07008KT 9999 FEW030
BECMG 1412/1414 01006KT
BECMG 1500/1503 12005KT
BECMG 1503/1506 18014KT
日本時間14日21時:070度から8ノットの風
21-23時:風が変化
23時-15日09時:010度から6ノットの風
09-12時:風が変化
12時:120度から5ノットの風
12-15時:風が変化
15時-16日03時:180度から14ノットの風


静岡空港
TAF RJNS 141106Z 1412/1518 35004KT 9999 FEW020 SCT050
TEMPO 1509/1512 4000 -SHRA BR FEW006 BKN008
BECMG 1512/1515 26014KT
BECMG 1515/1518 26022G32KT
日本時間14日21時-15日21時:350度から4ノットの風
21-24時:風が変化
16日00時:260度から14ノットの風
00-03時:風が変化
03時:260度から22ノット、突風32ノット

但し、15日18-21時の間:時々

福岡空港
TAF RJFF 141105Z 1412/1518 15005KT 9999 FEW030
BECMG 1500/1503 30011KT
日本時間14日21時-15日09時:150度から5ノットの風
09-12時:風が変化
12時-16日03時:300度から11ノットの風

但し、12日18-21時の間:時々

那覇空港
TAF ROAH 141106Z 1412/1518 06005KT 9999 FEW030 SCT045
BECMG 1417/1419 10005KT
BECMG 1503/1506 02009KT
日本時間14日21時-15日02時:060度から5ノットの風
02-04時:風が変化
04-12時:100度から5ノットの風
12-15時:風が変化
15時-16日03時:020度から9ノットの風


石垣空港
TAF ROIG 141108Z 1412/1518 08006KT 9999 FEW030 BKN045
BECMG 1512/1515 04016KT
日本時間14日21時-15日21時:080度から6ノットの風
21-24時:風が変化
16日00-03時:040度から16ノットの風


マウイのカフルイ空港
PHOG 141135Z 1412/1512 VRB03KT P6SM SCT050
FM142000 06010KT P6SM FEW030 SCT050
FM150500 VRB03KT P6SM SCT050 AMD LTD TO VIS AND WIND TIL 141600
ハワイ時間14日02-10時:風向不定3ノットの風
10-19時:060度から10ノットの風
19時-15日02時:風向不定3ノットの風


サイパン空港
PGSN 141122Z 1412/1512 03011KT P6SM VCSH SCT024 SCT045
FM150000 04015G22KT P6SM VCSH SCT024 SCT045
マリアナ時間14日22時-15日10時:030度から11ノットの風
10-22時:040度から15ノット、突風22ノット
ジャンル:
お天気
コメント   この記事についてブログを書く
« 1/13-1/15の航空気象通報 | トップ | 1/15-1/17の航空気象通報 »
最近の画像もっと見る

コメントを投稿

ブログ作成者から承認されるまでコメントは反映されません。

お天気」カテゴリの最新記事